Time;durP1;ratioP1;P1;durP2;ratioP2;P2;SDS_P1;SDS_P2;PMS_P1;PMS_P2;Temp;Humidity;BMP_temperature;BMP_pressure;BME280_temperature;BME280_humidity;BME280_pressure;Samples;Min_cycle;Max_cycle;Signal;HPM_P1;HPM_P2
2023/07/16 00:01:02;;;;;;;33.97;31.92;;;;;;;23.81;100.00;101138.91;5049882;28;20063;-78
2023/07/16 00:03:35;;;;;;;32.90;31.00;;;;;;;23.85;100.00;101141.88;5041881;28;20100;-79
2023/07/16 00:06:02;;;;;;;34.60;32.40;;;;;;;23.83;100.00;101141.34;5048241;28;20048;-82
2023/07/16 00:08:30;;;;;;;37.33;35.22;;;;;;;23.88;100.00;101139.41;5041822;28;20048;-82
2023/07/16 00:10:57;;;;;;;33.88;31.58;;;;;;;23.70;100.00;101131.97;5042241;28;20063;-81
2023/07/16 00:13:24;;;;;;;34.97;32.88;;;;;;;23.77;100.00;101125.13;5047081;28;20056;-82
2023/07/16 00:15:51;;;;;;;40.08;37.58;;;;;;;23.69;100.00;101127.59;5048475;28;20179;-78
2023/07/16 00:18:18;;;;;;;33.03;30.92;;;;;;;23.68;100.00;101134.91;5048544;28;20055;-82
2023/07/16 00:20:45;;;;;;;28.60;26.70;;;;;;;23.81;100.00;101125.34;5048232;28;20052;-80
2023/07/16 00:23:12;;;;;;;34.15;32.00;;;;;;;23.76;100.00;101126.22;5051407;28;20472;-79
2023/07/16 00:25:40;;;;;;;34.35;32.38;;;;;;;23.86;100.00;101129.94;5051333;28;20049;-78
2023/07/16 00:28:07;;;;;;;33.65;31.48;;;;;;;23.74;100.00;101131.09;5048942;28;20041;-82
2023/07/16 00:30:34;;;;;;;31.88;29.88;;;;;;;23.86;100.00;101129.94;5047227;28;20049;-78
2023/07/16 00:33:01;;;;;;;32.30;30.13;;;;;;;23.88;100.00;101115.00;5048694;28;20079;-80
2023/07/16 00:35:28;;;;;;;30.52;28.40;;;;;;;23.89;100.00;101113.88;5049378;28;20076;-81
2023/07/16 00:37:55;;;;;;;28.88;27.15;;;;;;;23.71;100.00;101122.72;5046746;28;20041;-78
2023/07/16 00:40:21;;;;;;;28.83;27.13;;;;;;;23.75;100.00;101119.19;5049162;28;20040;-81
2023/07/16 00:42:50;;;;;;;27.85;26.17;;;;;;;23.68;100.00;101118.66;5046078;28;20424;-78
2023/07/16 00:45:16;;;;;;;32.63;30.55;;;;;;;23.66;100.00;101112.72;5047303;28;20123;-78
2023/07/16 00:47:45;;;;;;;38.72;36.28;;;;;;;23.57;100.00;101111.72;5041658;28;20126;-78
2023/07/16 00:50:12;;;;;;;32.47;30.35;;;;;;;23.64;100.00;101114.91;5046070;28;20072;-78
2023/07/16 00:52:40;;;;;;;33.58;31.27;;;;;;;23.54;100.00;101107.66;5037372;28;20052;-78
2023/07/16 00:55:08;;;;;;;35.28;33.10;;;;;;;23.54;100.00;101106.84;5044277;28;20081;-80
2023/07/16 00:57:35;;;;;;;40.08;37.65;;;;;;;23.68;100.00;101110.53;5041441;28;20052;-80
2023/07/16 01:00:05;;;;;;;39.65;37.28;;;;;;;23.68;100.00;101102.38;5047829;28;20046;-80
2023/07/16 01:02:32;;;;;;;37.55;35.35;;;;;;;23.65;100.00;101102.16;5045203;28;20501;-80
2023/07/16 01:05:00;;;;;;;36.65;34.55;;;;;;;23.65;100.00;101108.38;5045946;28;20132;-80
2023/07/16 01:07:29;;;;;;;33.47;31.27;;;;;;;23.53;100.00;101106.03;5042279;28;20060;-80
2023/07/16 01:09:59;;;;;;;39.25;37.03;;;;;;;23.48;100.00;101105.25;5042569;28;20041;-80
2023/07/16 01:12:28;;;;;;;39.13;37.03;;;;;;;23.29;100.00;101103.22;5049643;28;20481;-80
2023/07/16 01:14:57;;;;;;;39.88;37.58;;;;;;;23.23;100.00;101098.13;5046480;28;20110;-80
2023/07/16 01:17:26;;;;;;;38.25;36.05;;;;;;;23.14;100.00;101100.63;5049502;28;20040;-80
2023/07/16 01:19:52;;;;;;;39.63;37.20;;;;;;;23.04;100.00;101115.03;5046086;28;20483;-80
2023/07/16 01:22:43;;;;;;;39.97;37.70;;;;;;;22.98;100.00;101116.16;5049098;28;20049;-80
2023/07/16 01:25:25;;;;;;;41.25;39.00;;;;;;;22.98;100.00;101108.03;5046012;28;20045;-80
2023/07/16 01:28:07;;;;;;;34.05;32.05;;;;;;;22.96;100.00;101109.41;5039826;28;20044;-80
2023/07/16 01:30:38;;;;;;;40.97;38.58;;;;;;;22.80;100.00;101108.66;5042917;28;20049;-83
2023/07/16 01:33:06;;;;;;;31.30;29.20;;;;;;;22.85;100.00;101105.91;5043018;28;20049;-83
2023/07/16 01:35:34;;;;;;;35.25;32.80;;;;;;;22.88;100.00;101108.06;5049226;28;20059;-84
2023/07/16 01:38:01;;;;;;;33.33;31.23;;;;;;;22.80;100.00;101106.75;5044713;28;20516;-83
2023/07/16 01:40:28;;;;;;;36.53;34.50;;;;;;;22.85;100.00;101108.63;5045400;28;20052;-79
2023/07/16 01:42:55;;;;;;;43.65;41.15;;;;;;;22.76;100.00;101108.41;5049041;28;20044;-80
2023/07/16 01:45:22;;;;;;;36.80;34.70;;;;;;;22.69;100.00;101117.88;5044792;28;20049;-80
2023/07/16 01:48:01;;;;;;;30.60;28.60;;;;;;;22.59;100.00;101091.69;5046494;28;20060;-84
2023/07/16 01:50:28;;;;;;;33.70;31.60;;;;;;;22.57;100.00;101107.38;5044226;28;20048;-80
2023/07/16 01:52:55;;;;;;;35.95;33.75;;;;;;;22.58;100.00;101119.84;5042425;28;20493;-80
2023/07/16 01:55:22;;;;;;;45.50;43.00;;;;;;;22.43;100.00;101107.16;5038850;28;20045;-80
2023/07/16 01:57:49;;;;;;;33.63;31.08;;;;;;;22.44;100.00;101121.50;5041304;28;20141;-80
2023/07/16 02:00:16;;;;;;;35.78;33.25;;;;;;;22.34;100.00;101114.22;5036403;28;20049;-80
2023/07/16 02:02:42;;;;;;;42.72;40.33;;;;;;;22.41;100.00;101106.63;5040732;28;20491;-80
2023/07/16 02:05:11;;;;;;;32.60;30.60;;;;;;;22.05;100.00;101112.09;5040875;28;20048;-80
2023/07/16 02:07:38;;;;;;;40.92;38.33;;;;;;;22.11;100.00;101121.00;5047184;28;20040;-80
2023/07/16 02:10:05;;;;;;;34.22;32.33;;;;;;;21.88;100.00;101117.81;5041641;28;20052;-80
2023/07/16 02:12:32;;;;;;;40.47;38.38;;;;;;;21.96;100.00;101116.44;5037508;28;20049;-80
2023/07/16 02:14:59;;;;;;;47.67;45.30;;;;;;;21.89;100.00;101114.00;5038104;28;20045;-80
2023/07/16 02:17:26;;;;;;;41.78;39.20;;;;;;;21.52;100.00;101122.41;5045707;28;20049;-80
2023/07/16 02:19:53;;;;;;;35.28;33.20;;;;;;;21.86;100.00;101111.03;5040337;28;20068;-80
2023/07/16 02:22:21;;;;;;;35.35;33.35;;;;;;;22.02;100.00;101123.44;5040852;28;20063;-80
2023/07/16 02:24:48;;;;;;;29.90;28.00;;;;;;;21.71;100.00;101111.84;5040091;28;20056;-80
2023/07/16 02:27:15;;;;;;;34.72;32.63;;;;;;;21.71;100.00;101119.97;5039018;28;20052;-80
2023/07/16 02:29:42;;;;;;;32.83;30.83;;;;;;;21.60;100.00;101124.53;5049273;28;20127;-79
2023/07/16 02:32:09;;;;;;;35.15;32.55;;;;;;;21.89;100.00;101124.00;5042950;28;20057;-80
2023/07/16 02:34:36;;;;;;;28.75;26.75;;;;;;;21.59;100.00;101122.13;5043219;28;20421;-80
2023/07/16 02:37:03;;;;;;;31.42;29.15;;;;;;;21.87;100.00;101124.28;5045159;28;20052;-80
2023/07/16 02:39:31;;;;;;;44.92;42.30;;;;;;;21.76;100.00;101121.88;5047720;28;20067;-80
2023/07/16 02:42:00;;;;;;;28.58;26.48;;;;;;;21.52;100.00;101118.88;5050410;28;20515;-80
2023/07/16 02:44:27;;;;;;;30.27;28.38;;;;;;;21.53;100.00;101125.91;5049674;28;20076;-80
2023/07/16 02:46:54;;;;;;;30.83;28.67;;;;;;;21.05;100.00;101123.34;5047408;28;20061;-80
2023/07/16 02:49:21;;;;;;;31.65;29.15;;;;;;;21.45;100.00;101119.97;5045167;28;20049;-84
2023/07/16 02:51:48;;;;;;;28.38;26.27;;;;;;;21.49;100.00;101118.34;5052019;28;20037;-83
2023/07/16 02:54:15;;;;;;;27.35;25.15;;;;;;;21.23;100.00;101132.84;5049185;28;20061;-80
2023/07/16 02:56:43;;;;;;;26.08;23.77;;;;;;;20.94;100.00;101125.22;5052829;28;20501;-80
2023/07/16 02:59:10;;;;;;;26.38;24.10;;;;;;;21.24;100.00;101126.38;5045111;28;20037;-80
2023/07/16 03:01:37;;;;;;;26.30;24.10;;;;;;;21.33;100.00;101121.25;5045288;28;20444;-80
2023/07/16 03:04:03;;;;;;;26.30;24.00;;;;;;;21.36;100.00;101115.34;5043566;28;20504;-80
2023/07/16 03:06:30;;;;;;;26.15;23.55;;;;;;;21.35;100.00;101125.31;5041133;28;20046;-80
2023/07/16 03:08:57;;;;;;;26.48;24.23;;;;;;;21.24;100.00;101124.50;5046402;28;20504;-80
2023/07/16 03:11:24;;;;;;;24.67;22.77;;;;;;;21.32;100.00;101125.03;5038651;28;20041;-80
2023/07/16 03:13:52;;;;;;;27.20;24.80;;;;;;;21.43;100.00;101130.22;5040486;28;20048;-80
2023/07/16 03:16:19;;;;;;;25.20;22.77;;;;;;;21.28;100.00;101135.56;5051608;28;20052;-80
2023/07/16 03:18:49;;;;;;;26.63;24.17;;;;;;;21.10;100.00;101128.78;5052565;28;20068;-80
2023/07/16 03:21:18;;;;;;;25.20;22.90;;;;;;;21.05;100.00;101143.06;5047609;28;20060;-80
2023/07/16 03:23:48;;;;;;;25.40;23.30;;;;;;;21.33;100.00;101127.50;5050259;28;20135;-80
2023/07/16 03:26:15;;;;;;;26.10;23.90;;;;;;;21.17;100.00;101133.91;5047217;28;20041;-80
2023/07/16 03:28:42;;;;;;;25.05;22.83;;;;;;;21.46;100.00;101136.97;5046453;28;20045;-79
2023/07/16 03:31:10;;;;;;;25.08;23.17;;;;;;;21.37;100.00;101125.09;5049951;28;20080;-84
2023/07/16 03:33:37;;;;;;;25.63;23.20;;;;;;;21.40;100.00;101130.75;5046367;28;20440;-83
2023/07/16 03:36:05;;;;;;;24.90;22.90;;;;;;;21.47;100.00;101128.59;5050538;28;20583;-80
2023/07/16 03:38:32;;;;;;;26.20;24.00;;;;;;;21.49;100.00;101141.84;5048123;28;20056;-79
2023/07/16 03:41:00;;;;;;;27.17;24.85;;;;;;;21.04;100.00;101127.94;5050846;28;20410;-80
2023/07/16 03:43:26;;;;;;;26.20;24.00;;;;;;;21.56;100.00;101133.47;5047237;28;20072;-80
2023/07/16 03:45:53;;;;;;;26.63;23.98;;;;;;;21.59;100.00;101132.94;5040353;28;20091;-79
2023/07/16 03:48:22;;;;;;;26.48;24.35;;;;;;;21.85;100.00;101131.88;5039946;28;20410;-80
2023/07/16 03:50:49;;;;;;;25.80;23.63;;;;;;;21.87;100.00;101131.56;5043712;28;20042;-80
2023/07/16 03:53:19;;;;;;;26.40;23.77;;;;;;;21.77;100.00;101135.09;5041556;28;20490;-80
2023/07/16 03:55:46;;;;;;;24.52;22.60;;;;;;;22.13;100.00;101137.78;5041206;28;20125;-83
2023/07/16 03:58:12;;;;;;;26.40;24.10;;;;;;;22.14;100.00;101142.91;5038105;28;20041;-79
2023/07/16 04:00:41;;;;;;;25.42;23.33;;;;;;;22.35;100.00;101149.13;5042662;28;20405;-80
2023/07/16 04:03:08;;;;;;;25.25;23.20;;;;;;;22.40;100.00;101143.72;5047790;28;20489;-84
2023/07/16 04:05:36;;;;;;;24.90;22.90;;;;;;;22.52;100.00;101146.13;5048189;28;20524;-84
2023/07/16 04:08:03;;;;;;;26.67;24.35;;;;;;;22.67;100.00;101147.16;5048368;28;20049;-80
2023/07/16 04:10:30;;;;;;;25.50;23.30;;;;;;;22.95;100.00;101149.22;5045827;28;20057;-80
2023/07/16 04:12:57;;;;;;;27.05;24.42;;;;;;;22.77;100.00;101152.53;5042577;28;20041;-79
2023/07/16 04:15:24;;;;;;;24.88;22.92;;;;;;;23.01;100.00;101156.22;5042003;28;20091;-79
2023/07/16 04:17:51;;;;;;;26.73;24.52;;;;;;;23.23;100.00;101146.91;5045413;28;20045;-84
2023/07/16 04:20:18;;;;;;;24.92;22.70;;;;;;;23.34;100.00;101143.03;5039799;28;20043;-83
2023/07/16 04:22:46;;;;;;;24.85;22.80;;;;;;;23.37;100.00;101145.19;5051250;28;20685;-84
2023/07/16 04:25:15;;;;;;;24.75;22.95;;;;;;;23.58;100.00;101148.56;5050591;28;21498;-80
2023/07/16 04:27:43;;;;;;;26.20;24.00;;;;;;;23.55;100.00;101159.97;5045731;28;20052;-80
2023/07/16 04:30:11;;;;;;;24.08;22.10;;;;;;;23.68;100.00;101153.91;5045463;28;20554;-80
2023/07/16 04:32:46;;;;;;;24.75;22.95;;;;;;;23.74;100.00;101152.81;5042479;28;20053;-80
2023/07/16 04:35:13;;;;;;;26.58;24.48;;;;;;;23.84;100.00;101156.53;5042505;28;20044;-79
2023/07/16 04:37:54;;;;;;;23.90;21.90;;;;;;;23.94;100.00;101151.03;5041227;28;20049;-80
2023/07/16 04:40:27;;;;;;;24.10;21.98;;;;;;;24.02;100.00;101155.00;5043112;28;20468;-79
2023/07/16 04:42:53;;;;;;;23.35;21.42;;;;;;;24.07;100.00;101150.34;5048044;28;20052;-80
2023/07/16 04:45:20;;;;;;;23.65;21.73;;;;;;;24.31;100.00;101144.16;5046834;28;20067;-80
2023/07/16 04:47:50;;;;;;;22.55;20.65;;;;;;;24.29;100.00;101154.47;5047592;28;20045;-79
2023/07/16 04:50:24;;;;;;;25.52;23.27;;;;;;;24.45;100.00;101156.78;5038677;28;20055;-80
2023/07/16 04:52:50;;;;;;;25.20;23.20;;;;;;;24.40;100.00;101148.66;5043832;28;20037;-80
2023/07/16 04:55:20;;;;;;;24.92;23.02;;;;;;;24.62;100.00;101156.31;5047977;28;20040;-85
2023/07/16 04:57:47;;;;;;;24.73;22.73;;;;;;;24.55;100.00;101153.13;5037827;28;20053;-83
2023/07/16 05:00:16;;;;;;;27.20;25.00;;;;;;;24.67;100.00;101150.03;5048479;28;20405;-79
2023/07/16 05:02:49;;;;;;;25.85;23.75;;;;;;;24.84;100.00;101157.66;5038383;28;20405;-80
2023/07/16 05:05:16;;;;;;;25.63;23.33;;;;;;;24.96;100.00;101158.06;5046224;28;20532;-80
2023/07/16 05:07:43;;;;;;;22.30;20.40;;;;;;;25.10;100.00;101161.69;5042224;28;20071;-80
2023/07/16 05:10:10;;;;;;;23.33;21.42;;;;;;;25.22;100.00;101157.75;5045242;28;20040;-83
2023/07/16 05:12:38;;;;;;;22.98;20.92;;;;;;;25.41;100.00;101163.19;5045016;28;20472;-84
2023/07/16 05:15:06;;;;;;;24.88;22.98;;;;;;;25.32;100.00;101163.03;5046472;28;20043;-84
2023/07/16 05:17:33;;;;;;;22.75;20.95;;;;;;;25.43;100.00;101161.78;5044196;28;20068;-85
2023/07/16 05:20:00;;;;;;;22.52;20.63;;;;;;;25.65;100.00;101161.16;5036668;28;20045;-79
2023/07/16 05:22:27;;;;;;;24.25;22.05;;;;;;;25.80;100.00;101165.56;5043738;28;20080;-80
2023/07/16 05:24:54;;;;;;;24.30;22.23;;;;;;;26.04;100.00;101160.00;5041154;28;20033;-80
2023/07/16 05:27:21;;;;;;;22.25;20.20;;;;;;;26.13;100.00;101171.00;5044174;28;20049;-79
2023/07/16 05:29:49;;;;;;;23.60;21.60;;;;;;;26.13;100.00;101158.22;5042076;28;20045;-80
2023/07/16 05:32:16;;;;;;;23.35;21.38;;;;;;;26.34;100.00;101157.84;5042232;28;20057;-79
2023/07/16 05:35:16;;;;;;;24.05;21.88;;;;;;;26.53;100.00;101165.94;5043663;28;20057;-80
2023/07/16 05:37:52;;;;;;;23.77;21.70;;;;;;;26.45;100.00;101162.78;4981402;28;20120;-80
2023/07/16 05:40:19;;;;;;;23.52;21.73;;;;;;;26.77;100.00;101163.81;5036711;28;20049;-84
2023/07/16 05:42:48;;;;;;;22.38;20.38;;;;;;;27.03;100.00;101168.75;5040402;28;20056;-80
2023/07/16 05:45:25;;;;;;;22.95;20.95;;;;;;;27.31;100.00;101164.03;5047358;28;20053;-82
2023/07/16 05:47:57;;;;;;;21.58;19.63;;;;;;;27.13;100.00;101168.50;5036973;28;20397;-83
2023/07/16 05:50:24;;;;;;;21.88;20.08;;;;;;;27.12;100.00;101159.53;5043147;28;20045;-84
2023/07/16 05:52:58;;;;;;;22.25;20.35;;;;;;;27.31;100.00;101167.56;5046012;28;20045;-83
2023/07/16 05:55:34;;;;;;;22.17;20.08;;;;;;;27.44;100.00;101176.00;5044083;28;20061;-84
2023/07/16 05:58:03;;;;;;;21.42;19.60;;;;;;;27.40;100.00;101176.63;5050582;28;20074;-83
2023/07/16 06:00:44;;;;;;;24.55;22.67;;;;;;;27.48;100.00;101171.56;5050253;28;20049;-83
2023/07/16 06:03:27;;;;;;;22.83;20.60;;;;;;;27.47;100.00;101175.41;5041102;28;20049;-83
2023/07/16 06:06:06;;;;;;;23.17;21.10;;;;;;;27.70;100.00;101166.09;5039678;28;20091;-82
2023/07/16 06:08:37;;;;;;;22.67;20.88;;;;;;;27.74;100.00;101169.00;5045970;28;20052;-83
2023/07/16 06:11:04;;;;;;;24.25;22.35;;;;;;;27.70;100.00;101163.38;5055313;28;20052;-82
2023/07/16 06:13:37;;;;;;;23.70;21.73;;;;;;;27.95;100.00;101161.94;5051854;28;20535;-84
2023/07/16 06:16:18;;;;;;;23.50;21.30;;;;;;;28.00;100.00;101166.50;5049930;28;20042;-83
2023/07/16 06:18:45;;;;;;;23.17;21.07;;;;;;;28.17;100.00;101165.75;5048473;28;20464;-83
2023/07/16 06:21:17;;;;;;;23.63;21.63;;;;;;;28.16;100.00;101162.22;5050547;28;20048;-83
2023/07/16 06:23:44;;;;;;;25.70;23.60;;;;;;;28.32;100.00;101165.34;5045872;28;20401;-83
2023/07/16 06:26:11;;;;;;;23.48;21.52;;;;;;;28.52;100.00;101169.47;5051060;28;20055;-83
2023/07/16 06:28:40;;;;;;;26.15;23.95;;;;;;;28.77;100.00;101170.66;5046327;28;20053;-83
2023/07/16 06:31:07;;;;;;;22.33;20.45;;;;;;;28.79;100.00;101167.63;5050588;28;20531;-83
2023/07/16 06:33:35;;;;;;;22.85;20.88;;;;;;;28.99;100.00;101180.72;5054744;28;20060;-84
2023/07/16 06:36:02;;;;;;;23.42;21.23;;;;;;;28.77;100.00;101174.19;5049927;28;20047;-84
2023/07/16 06:38:29;;;;;;;23.92;21.83;;;;;;;28.95;100.00;101176.97;5056458;28;21126;-82
2023/07/16 06:40:56;;;;;;;25.90;23.77;;;;;;;29.04;100.00;101174.28;5052408;28;20517;-81
2023/07/16 06:43:23;;;;;;;24.77;22.55;;;;;;;29.16;100.00;101166.25;5044640;28;20037;-81
2023/07/16 06:45:50;;;;;;;25.75;23.55;;;;;;;29.34;100.00;101175.28;5044603;28;20046;-81
2023/07/16 06:48:17;;;;;;;27.88;25.58;;;;;;;29.26;100.00;101171.44;5044219;28;20118;-81
2023/07/16 06:50:46;;;;;;;28.67;26.48;;;;;;;29.31;100.00;101167.72;5050895;28;20068;-81
2023/07/16 06:53:13;;;;;;;26.85;24.55;;;;;;;29.62;100.00;101176.59;5050386;28;20046;-81
2023/07/16 06:55:40;;;;;;;24.63;22.50;;;;;;;29.56;100.00;101169.66;5053954;28;20045;-81
2023/07/16 06:58:06;;;;;;;25.27;22.98;;;;;;;29.62;100.00;101171.13;5051057;28;20045;-81
2023/07/16 07:00:33;;;;;;;25.15;22.70;;;;;;;29.93;100.00;101166.56;5049067;28;20406;-81
2023/07/16 07:03:00;;;;;;;24.40;22.30;;;;;;;29.81;100.00;101167.25;5049549;28;20052;-81
2023/07/16 07:05:27;;;;;;;25.08;22.58;;;;;;;29.95;100.00;101175.25;5045320;28;20472;-81
2023/07/16 07:07:55;;;;;;;25.02;22.70;;;;;;;30.03;100.00;101166.22;5053487;28;20052;-81
2023/07/16 07:10:22;;;;;;;25.48;23.45;;;;;;;30.25;100.00;101171.47;5055423;28;20048;-81
2023/07/16 07:12:49;;;;;;;25.10;23.00;;;;;;;30.31;100.00;101169.34;5056944;28;20044;-81
2023/07/16 07:15:16;;;;;;;25.98;23.70;;;;;;;30.35;100.00;101173.88;5056090;28;20040;-81
2023/07/16 07:17:46;;;;;;;24.15;22.02;;;;;;;30.39;100.00;101171.25;5055522;28;20500;-81
2023/07/16 07:20:14;;;;;;;25.20;23.13;;;;;;;30.30;100.00;101165.03;5042510;28;20500;-81
2023/07/16 07:22:41;;;;;;;25.60;23.38;;;;;;;30.33;100.00;101167.91;5051722;28;20081;-81
2023/07/16 07:25:09;;;;;;;26.10;24.02;;;;;;;30.65;100.00;101157.41;5052245;28;20503;-82
2023/07/16 07:27:36;;;;;;;24.30;22.27;;;;;;;30.92;100.00;101158.09;5050941;28;20057;-82
2023/07/16 07:30:03;;;;;;;25.67;22.75;;;;;;;30.95;100.00;101165.66;5051694;28;20541;-81
2023/07/16 07:32:30;;;;;;;24.58;22.38;;;;;;;31.22;100.00;101169.81;5051041;28;20049;-81
2023/07/16 07:34:57;;;;;;;25.55;23.35;;;;;;;31.27;100.00;101161.38;5052451;28;20053;-80
2023/07/16 07:37:24;;;;;;;26.08;23.90;;;;;;;31.12;100.00;101159.25;5043914;28;20049;-81
2023/07/16 07:39:53;;;;;;;25.67;23.48;;;;;;;30.89;100.00;101165.03;5041779;28;20057;-81
2023/07/16 07:42:21;;;;;;;27.17;24.73;;;;;;;31.04;100.00;101147.19;5045161;28;20045;-82
2023/07/16 07:44:48;;;;;;;26.90;24.60;;;;;;;30.98;100.00;101143.03;5051242;28;20522;-82
2023/07/16 07:47:15;;;;;;;24.80;22.40;;;;;;;31.37;100.00;101151.97;5052513;28;20045;-82
2023/07/16 07:49:42;;;;;;;23.23;21.30;;;;;;;31.73;100.00;101155.97;5052666;28;20045;-81
2023/07/16 07:52:09;;;;;;;24.98;22.98;;;;;;;31.53;100.00;101147.47;5052394;28;20044;-82
2023/07/16 07:54:36;;;;;;;23.55;21.75;;;;;;;31.85;100.00;101143.09;5052819;28;20064;-82
2023/07/16 07:57:04;;;;;;;25.50;23.02;;;;;;;31.86;100.00;101146.63;5052434;28;20059;-80
2023/07/16 07:59:32;;;;;;;25.70;23.65;;;;;;;31.88;100.00;101149.84;5051726;28;20048;-80
2023/07/16 08:02:01;;;;;;;23.63;21.67;;;;;;;31.42;100.00;101144.31;5045100;28;20049;-80
2023/07/16 08:04:28;;;;;;;24.95;22.73;;;;;;;32.13;100.00;101146.00;5051357;28;20607;-81
2023/07/16 08:06:55;;;;;;;26.00;23.80;;;;;;;32.34;100.00;101140.41;5051990;28;20057;-82
2023/07/16 08:09:22;;;;;;;26.35;24.40;;;;;;;32.19;100.00;101143.03;5052363;28;20048;-82
2023/07/16 08:11:49;;;;;;;25.92;23.83;;;;;;;32.31;100.00;101143.84;5052284;28;20045;-81
2023/07/16 08:14:16;;;;;;;26.50;24.38;;;;;;;32.25;100.00;101139.72;5047204;28;20053;-81
2023/07/16 08:16:45;;;;;;;24.63;22.60;;;;;;;32.43;100.00;101145.00;5042804;28;20049;-81
2023/07/16 08:19:13;;;;;;;25.92;23.70;;;;;;;32.65;100.00;101141.81;5039656;28;20046;-81
2023/07/16 08:21:40;;;;;;;24.50;22.30;;;;;;;32.79;100.00;101139.47;5046409;28;20052;-82
2023/07/16 08:24:07;;;;;;;26.92;24.67;;;;;;;32.86;100.00;101144.41;5041747;28;20046;-81
2023/07/16 08:26:34;;;;;;;26.05;23.60;;;;;;;32.96;100.00;101138.44;5052055;28;20049;-81
2023/07/16 08:29:02;;;;;;;28.00;25.90;;;;;;;33.09;100.00;101141.97;5051308;28;20087;-82
2023/07/16 08:31:29;;;;;;;26.50;24.27;;;;;;;33.26;100.00;101141.69;5050138;28;20057;-81
2023/07/16 08:33:57;;;;;;;27.50;25.38;;;;;;;33.22;100.00;101137.22;5050642;28;20045;-82
2023/07/16 08:36:25;;;;;;;29.02;26.73;;;;;;;32.89;100.00;101131.91;5052329;28;20056;-81
2023/07/16 08:38:52;;;;;;;28.83;26.70;;;;;;;32.67;100.00;101131.25;5052049;28;20048;-81
2023/07/16 08:41:19;;;;;;;30.90;28.42;;;;;;;32.69;100.00;101141.94;5052013;28;20063;-81
2023/07/16 08:43:48;;;;;;;31.35;28.70;;;;;;;32.49;100.00;101138.16;5051539;28;20440;-81
2023/07/16 08:46:16;;;;;;;32.50;29.92;;;;;;;32.43;100.00;101136.75;5051963;28;20460;-80
2023/07/16 08:48:43;;;;;;;28.58;25.95;;;;;;;32.30;100.00;101145.00;5051492;28;20045;-79
2023/07/16 08:51:15;;;;;;;30.40;27.90;;;;;;;32.15;100.00;101146.47;5051275;28;20135;-82
2023/07/16 08:53:42;;;;;;;30.70;28.20;;;;;;;32.10;100.00;101135.69;5051516;28;20055;-80
2023/07/16 08:56:09;;;;;;;31.92;29.42;;;;;;;32.17;100.00;101135.97;5045417;28;20049;-80
2023/07/16 08:58:37;;;;;;;33.08;30.48;;;;;;;32.10;100.00;101140.41;5047211;28;20057;-80
2023/07/16 09:01:06;;;;;;;30.83;28.10;;;;;;;32.39;100.00;101134.69;5047622;28;20405;-84
2023/07/16 09:03:33;;;;;;;30.10;27.23;;;;;;;32.44;100.00;101124.59;5041547;28;20460;-80
2023/07/16 09:06:00;;;;;;;32.92;30.02;;;;;;;33.69;100.00;101131.06;5044636;28;20531;-80
2023/07/16 09:08:29;;;;;;;32.67;29.85;;;;;;;33.13;100.00;101131.06;5041739;28;20045;-81
2023/07/16 09:10:56;;;;;;;31.95;29.15;;;;;;;33.52;100.00;101124.72;5043870;28;20073;-80
2023/07/16 09:13:26;;;;;;;34.55;31.75;;;;;;;34.28;100.00;101130.19;5039641;28;20444;-81
2023/07/16 09:15:54;;;;;;;33.80;30.92;;;;;;;34.26;100.00;101117.97;5037493;28;20048;-80
2023/07/16 09:18:21;;;;;;;32.08;29.27;;;;;;;33.92;100.00;101126.56;5040008;28;20049;-82
2023/07/16 09:20:48;;;;;;;33.25;30.40;;;;;;;33.91;100.00;101135.16;5044328;28;20088;-81
2023/07/16 09:23:18;;;;;;;34.47;31.00;;;;;;;33.73;100.00;101124.50;5046370;28;20041;-80
2023/07/16 09:25:46;;;;;;;34.60;31.65;;;;;;;34.00;98.14;101132.25;5044899;28;20061;-81
2023/07/16 09:28:13;;;;;;;32.40;29.60;;;;;;;34.36;98.44;101125.66;5042147;28;20052;-80
2023/07/16 09:30:40;;;;;;;34.10;31.10;;;;;;;34.15;95.96;101120.44;5040886;28;20045;-79
2023/07/16 09:33:15;;;;;;;35.15;32.20;;;;;;;33.85;100.00;101123.63;5036708;28;20437;-80
2023/07/16 09:35:42;;;;;;;33.78;30.63;;;;;;;34.37;88.73;101119.00;5038588;28;20041;-82
2023/07/16 09:38:10;;;;;;;33.85;30.85;;;;;;;34.23;98.20;101126.94;5036019;28;20056;-81
2023/07/16 09:40:37;;;;;;;35.38;32.45;;;;;;;34.28;100.00;101124.69;5042316;28;20060;-81
2023/07/16 09:43:07;;;;;;;34.30;31.50;;;;;;;34.35;97.79;101111.09;5039742;28;20041;-81
2023/07/16 09:45:34;;;;;;;33.72;30.92;;;;;;;34.35;96.80;101111.09;5039262;28;20057;-81
2023/07/16 09:48:01;;;;;;;33.88;30.98;;;;;;;34.37;98.65;101114.28;5039971;28;20048;-81
2023/07/16 09:50:30;;;;;;;33.63;30.83;;;;;;;33.97;100.00;101117.22;5038101;28;20068;-80
2023/07/16 09:52:58;;;;;;;32.60;29.70;;;;;;;33.98;99.56;101110.53;5040239;28;20045;-81
2023/07/16 09:55:26;;;;;;;28.30;26.00;;;;;;;33.77;100.00;101110.84;5037248;28;20515;-82
2023/07/16 09:57:56;;;;;;;33.05;30.25;;;;;;;32.85;100.00;101118.84;5039025;28;20049;-81
2023/07/16 10:00:25;;;;;;;32.22;29.33;;;;;;;33.29;100.00;101102.47;5038928;28;20044;-81
2023/07/16 10:02:53;;;;;;;32.55;29.95;;;;;;;33.71;100.00;101104.00;5042800;28;20041;-81
2023/07/16 10:05:24;;;;;;;33.08;30.75;;;;;;;33.84;100.00;101104.69;5048808;28;20468;-81
2023/07/16 10:07:52;;;;;;;37.50;34.20;;;;;;;33.92;100.00;101099.03;5044597;28;20044;-81
2023/07/16 10:10:21;;;;;;;36.63;33.90;;;;;;;33.79;100.00;101100.25;5038032;28;20631;-81
2023/07/16 10:12:57;;;;;;;35.50;32.60;;;;;;;33.81;100.00;101095.19;5040677;28;20516;-80
2023/07/16 10:15:28;;;;;;;30.02;27.38;;;;;;;33.73;100.00;101094.19;5039119;28;20051;-81
2023/07/16 10:17:57;;;;;;;29.48;27.08;;;;;;;33.56;100.00;101086.28;5049787;28;20475;-81
2023/07/16 10:20:31;;;;;;;36.88;33.90;;;;;;;34.00;100.00;101088.97;5042803;28;20051;-81
2023/07/16 10:22:57;;;;;;;34.88;32.17;;;;;;;33.70;100.00;101097.66;5040135;28;20050;-81
2023/07/16 10:25:26;;;;;;;35.65;32.97;;;;;;;33.87;100.00;101095.72;5044103;28;20432;-81
2023/07/16 10:27:55;;;;;;;31.95;29.38;;;;;;;34.61;100.00;101087.66;5041698;28;20049;-81
2023/07/16 10:30:22;;;;;;;31.77;29.38;;;;;;;34.82;100.00;101079.03;5043092;28;20127;-81
2023/07/16 10:32:52;;;;;;;32.90;30.40;;;;;;;34.15;100.00;101084.63;5041728;28;20095;-81
2023/07/16 10:35:19;;;;;;;35.60;32.90;;;;;;;34.12;100.00;101088.88;5040266;28;20057;-81
2023/07/16 10:37:46;;;;;;;34.40;31.48;;;;;;;34.43;99.92;101090.81;5036143;28;20050;-81
2023/07/16 10:40:17;;;;;;;35.90;33.40;;;;;;;34.20;100.00;101084.34;5045372;28;20037;-81
2023/07/16 10:42:46;;;;;;;34.28;31.60;;;;;;;34.15;98.88;101087.38;5039883;28;20037;-80
2023/07/16 10:45:13;;;;;;;33.15;30.38;;;;;;;34.60;100.00;101078.59;5045569;28;20049;-81
2023/07/16 10:47:52;;;;;;;32.42;29.92;;;;;;;34.69;92.68;101070.13;5042680;28;20045;-81
2023/07/16 10:50:21;;;;;;;31.60;29.10;;;;;;;34.76;91.42;101075.75;5041916;28;20130;-81
2023/07/16 10:52:53;;;;;;;35.92;33.22;;;;;;;34.84;100.00;101065.69;5042969;28;20049;-81
2023/07/16 10:55:21;;;;;;;34.92;31.73;;;;;;;35.32;90.09;101067.06;4687743;28;10000294;-81
2023/07/16 10:57:49;;;;;;;31.85;29.20;;;;;;;35.16;100.00;101068.31;5041369;28;20136;-81
2023/07/16 11:00:17;;;;;;;30.48;28.08;;;;;;;34.94;87.26;101067.06;5044591;28;20076;-80
2023/07/16 11:02:47;;;;;;;33.53;30.65;;;;;;;34.60;96.22;101069.53;5048005;28;20084;-81
2023/07/16 11:05:15;;;;;;;36.75;33.95;;;;;;;34.27;94.52;101061.66;5047389;28;20506;-81
2023/07/16 11:07:49;;;;;;;35.67;33.17;;;;;;;34.43;91.91;101057.72;5044403;28;20057;-81